Time;durP1;ratioP1;P1;durP2;ratioP2;P2;SDS_P1;SDS_P2;PMS_P1;PMS_P2;Temp;Humidity;BMP_temperature;BMP_pressure;BME280_temperature;BME280_humidity;BME280_pressure;Samples;Min_cycle;Max_cycle;Signal;HPM_P1;HPM_P2
2022/11/19 00:00:51;;;;;;;22.88;5.20;;;;;;;20.19;45.05;96925.56;4994897;28;20039;-58
2022/11/19 00:03:18;;;;;;;25.73;5.53;;;;;;;19.79;45.29;96926.78;4997477;28;20391;-58
2022/11/19 00:05:46;;;;;;;23.88;5.30;;;;;;;18.77;46.25;96940.66;4999305;28;20791;-59
2022/11/19 00:08:16;;;;;;;24.27;5.85;;;;;;;19.52;45.38;96932.00;4995673;28;20030;-59
2022/11/19 00:10:42;;;;;;;23.58;5.13;;;;;;;19.51;45.42;96939.13;5006357;28;20554;-58
2022/11/19 00:13:08;;;;;;;23.63;5.38;;;;;;;19.47;46.03;96931.63;4997855;28;20038;-58
2022/11/19 00:15:34;;;;;;;22.70;4.70;;;;;;;19.77;44.74;96934.03;4995892;28;20084;-60
2022/11/19 00:18:00;;;;;;;18.88;4.53;;;;;;;19.19;46.56;96939.50;5002144;28;20071;-59
2022/11/19 00:20:27;;;;;;;21.65;5.50;;;;;;;18.24;47.20;96933.94;4998014;28;20034;-58
2022/11/19 00:22:53;;;;;;;22.17;4.75;;;;;;;17.63;48.63;96936.69;4997997;28;20509;-58
2022/11/19 00:25:20;;;;;;;16.80;4.53;;;;;;;19.21;46.02;96927.00;5004582;28;20028;-58
2022/11/19 00:27:46;;;;;;;21.85;5.05;;;;;;;17.66;48.94;96939.91;4998387;28;20014;-58
2022/11/19 00:30:12;;;;;;;28.17;5.90;;;;;;;18.47;46.78;96928.41;4998606;28;20091;-58
2022/11/19 00:32:37;;;;;;;20.15;4.97;;;;;;;19.04;46.19;96937.31;4997865;28;20029;-59
2022/11/19 00:35:04;;;;;;;19.63;5.00;;;;;;;19.27;45.31;96939.63;4998652;28;20028;-58
2022/11/19 00:37:29;;;;;;;23.30;5.50;;;;;;;19.41;45.46;96944.44;5002544;28;20041;-61
2022/11/19 00:39:55;;;;;;;25.27;5.63;;;;;;;18.76;47.29;96938.13;4998055;28;20622;-60
2022/11/19 00:42:21;;;;;;;21.20;5.43;;;;;;;18.96;46.77;96945.09;5005004;28;20037;-58
2022/11/19 00:44:46;;;;;;;21.77;5.25;;;;;;;18.44;47.63;96941.91;4999868;28;20757;-59
2022/11/19 00:47:11;;;;;;;17.98;4.70;;;;;;;18.83;47.09;96945.38;5000464;28;20083;-59
2022/11/19 00:49:37;;;;;;;22.60;5.75;;;;;;;19.62;45.64;96935.47;4999621;28;20045;-59
2022/11/19 00:52:03;;;;;;;17.05;5.10;;;;;;;18.29;47.85;96952.84;4999348;28;20030;-58
2022/11/19 00:54:28;;;;;;;19.33;5.90;;;;;;;17.94;48.48;96944.56;4999670;28;20117;-59
2022/11/19 00:56:54;;;;;;;31.38;6.30;;;;;;;19.32;46.23;96939.19;4999662;28;20062;-59
2022/11/19 00:59:19;;;;;;;20.58;6.10;;;;;;;18.15;48.35;96947.97;4999109;28;20025;-58
2022/11/19 01:01:44;;;;;;;26.10;6.72;;;;;;;18.76;46.15;96944.25;4998305;28;20042;-58
2022/11/19 01:04:10;;;;;;;22.58;6.07;;;;;;;17.70;48.51;96951.00;5001853;28;20092;-58
2022/11/19 01:06:35;;;;;;;19.30;5.75;;;;;;;18.03;49.19;96951.69;5001338;28;20096;-58
2022/11/19 01:09:01;;;;;;;28.02;6.55;;;;;;;19.19;45.75;96950.09;4998455;28;20088;-58
2022/11/19 01:11:30;;;;;;;19.42;5.32;;;;;;;17.89;46.88;96956.38;4997318;28;20129;-58
2022/11/19 01:13:57;;;;;;;25.38;6.38;;;;;;;18.53;47.20;96954.28;5000988;28;20056;-58
2022/11/19 01:16:27;;;;;;;19.33;5.28;;;;;;;18.05;47.32;96960.31;5002209;28;20038;-58
2022/11/19 01:18:53;;;;;;;23.70;5.68;;;;;;;19.13;46.22;96950.63;4996577;28;20034;-61
2022/11/19 01:21:21;;;;;;;21.15;5.75;;;;;;;18.59;46.34;96961.63;5000070;28;20053;-58
2022/11/19 01:23:47;;;;;;;20.75;5.65;;;;;;;18.32;47.44;96958.81;5003116;28;20526;-58
2022/11/19 01:26:14;;;;;;;29.05;6.70;;;;;;;18.18;47.41;96966.19;4994822;28;20125;-58
2022/11/19 01:28:40;;;;;;;23.33;5.80;;;;;;;18.24;47.07;96970.06;4996449;28;20125;-61
2022/11/19 01:31:20;;;;;;;21.38;6.18;;;;;;;18.53;46.72;96971.91;4994757;28;20101;-58
2022/11/19 01:33:45;;;;;;;21.77;5.72;;;;;;;18.93;45.68;96970.97;4997391;28;20029;-58
2022/11/19 01:36:16;;;;;;;23.00;5.88;;;;;;;18.16;46.30;96983.94;4999484;28;20037;-58
2022/11/19 01:38:42;;;;;;;21.75;5.85;;;;;;;18.49;46.41;96981.94;5001845;28;20083;-59
2022/11/19 01:41:08;;;;;;;25.98;6.63;;;;;;;18.48;46.05;96990.81;4995118;28;20862;-58
2022/11/19 01:43:45;;;;;;;25.70;6.15;;;;;;;18.95;44.81;96990.16;4999543;28;20076;-59
2022/11/19 01:46:13;;;;;;;20.13;5.78;;;;;;;18.91;45.66;96992.25;4999254;28;20026;-59
2022/11/19 01:48:44;;;;;;;22.58;6.00;;;;;;;17.30;46.72;96996.59;4999344;28;20029;-58
2022/11/19 01:51:30;;;;;;;20.27;6.00;;;;;;;18.06;46.71;96991.00;4998346;28;20607;-58
2022/11/19 01:53:59;;;;;;;21.85;5.63;;;;;;;18.41;46.09;96989.69;5002948;28;20029;-59
2022/11/19 01:56:26;;;;;;;23.02;5.63;;;;;;;18.03;46.87;96999.16;4999498;28;20073;-60
2022/11/19 01:58:58;;;;;;;22.95;6.00;;;;;;;18.57;45.94;96989.97;4996640;28;20022;-59
2022/11/19 02:01:24;;;;;;;21.52;6.35;;;;;;;18.02;46.83;97000.16;4995318;28;20038;-58
2022/11/19 02:03:50;;;;;;;23.45;6.07;;;;;;;19.11;45.17;96989.59;4997990;28;20084;-58
2022/11/19 02:06:16;;;;;;;20.75;5.72;;;;;;;18.57;45.50;97002.38;4997156;28;20599;-57
2022/11/19 02:08:48;;;;;;;28.77;6.88;;;;;;;18.01;46.09;97017.78;4992631;28;20117;-58
2022/11/19 02:11:51;;;;;;;26.55;6.20;;;;;;;17.54;47.38;97015.59;4995126;28;20121;-57
2022/11/19 02:14:52;;;;;;;20.77;6.03;;;;;;;18.02;46.73;97010.72;4994306;28;20022;-59
2022/11/19 02:17:23;;;;;;;23.08;5.95;;;;;;;18.18;44.52;97002.25;4996671;28;20054;-60
2022/11/19 02:20:18;;;;;;;31.27;7.15;;;;;;;18.67;44.33;97003.19;4994702;28;20040;-57
2022/11/19 02:23:21;;;;;;;26.27;6.68;;;;;;;17.83;45.68;97016.69;4996863;28;20676;-57
2022/11/19 02:26:05;;;;;;;24.77;6.35;;;;;;;18.36;45.09;97013.00;4997468;28;20651;-60
2022/11/19 02:28:55;;;;;;;19.42;5.93;;;;;;;17.96;45.71;97008.59;4996122;28;20053;-58
2022/11/19 02:31:23;;;;;;;24.73;6.40;;;;;;;18.74;44.15;96992.91;4996787;28;20058;-58
2022/11/19 02:34:00;;;;;;;25.02;6.80;;;;;;;18.65;44.39;97002.50;4993625;28;20630;-60
2022/11/19 02:36:41;;;;;;;24.60;6.55;;;;;;;17.28;46.63;97016.97;4997205;28;20455;-57
2022/11/19 02:39:14;;;;;;;26.73;6.63;;;;;;;18.27;45.45;96996.22;5001286;28;20036;-57
2022/11/19 02:41:50;;;;;;;21.85;6.13;;;;;;;18.88;44.56;97011.03;4994783;28;20046;-57
2022/11/19 02:47:21;;;;;;;22.60;6.40;;;;;;;18.18;44.28;97026.88;4994778;28;20742;-57
2022/11/19 02:49:50;;;;;;;21.60;6.10;;;;;;;19.42;42.75;97020.13;4996756;28;20491;-58
2022/11/19 02:52:17;;;;;;;24.25;6.82;;;;;;;19.84;42.54;97022.44;4992671;28;20050;-58
2022/11/19 02:54:43;;;;;;;14.98;5.40;;;;;;;18.73;44.34;97038.78;4995917;28;20036;-57
2022/11/19 02:57:10;;;;;;;21.58;6.20;;;;;;;17.78;45.81;97037.38;4999544;28;20045;-60
2022/11/19 03:05:19;;;;;;;24.50;6.93;;;;;;;18.25;44.19;97030.66;4998867;28;20403;-58
2022/11/19 03:07:45;;;;;;;22.75;7.13;;;;;;;18.40;45.90;97030.28;4997735;28;20468;-58
2022/11/19 03:10:12;;;;;;;26.27;6.57;;;;;;;17.65;46.18;97033.13;4995726;28;20034;-58
2022/11/19 03:12:53;;;;;;;18.60;6.10;;;;;;;18.52;44.94;97023.88;4998123;28;20042;-58
2022/11/19 03:18:34;;;;;;;21.88;6.38;;;;;;;17.54;46.31;97031.41;5000286;28;20086;-58
2022/11/19 03:21:06;;;;;;;22.27;6.85;;;;;;;16.80;46.69;97041.09;5001490;28;20081;-58
2022/11/19 03:23:38;;;;;;;27.70;7.20;;;;;;;17.49;47.79;97048.59;5004388;28;20021;-60
2022/11/19 03:26:10;;;;;;;21.75;6.65;;;;;;;17.38;47.49;97046.84;4999628;28;20457;-57
2022/11/19 03:28:37;;;;;;;23.50;6.88;;;;;;;16.57;48.08;97052.53;4998540;28;20395;-57
2022/11/19 03:31:05;;;;;;;21.10;7.13;;;;;;;16.52;47.96;97059.97;5000925;28;20033;-57
2022/11/19 03:33:43;;;;;;;18.58;5.22;;;;;;;16.90;47.77;97055.22;5002853;28;20692;-58
2022/11/19 03:36:24;;;;;;;20.40;5.85;;;;;;;17.98;46.38;97051.53;4999637;28;20137;-58
2022/11/19 03:38:54;;;;;;;22.58;6.53;;;;;;;17.36;47.04;97058.50;4997526;28;20022;-57
2022/11/19 03:41:23;;;;;;;19.55;5.97;;;;;;;16.98;46.85;97060.69;4999520;28;20041;-60
2022/11/19 03:43:56;;;;;;;23.77;6.65;;;;;;;16.98;46.70;97055.41;4998068;28;20030;-57
2022/11/19 03:46:25;;;;;;;23.42;6.82;;;;;;;17.26;46.50;97063.69;5000257;28;20442;-59
2022/11/19 03:48:54;;;;;;;23.83;6.97;;;;;;;16.09;49.53;97067.81;5001113;28;20033;-57
2022/11/19 03:51:39;;;;;;;19.40;7.38;;;;;;;15.73;49.38;97072.28;5000539;28;20083;-58
2022/11/19 03:54:05;;;;;;;24.92;7.15;;;;;;;16.52;48.00;97070.50;5000603;28;20109;-58
2022/11/19 03:56:35;;;;;;;20.50;5.93;;;;;;;18.18;46.20;97068.25;4997676;28;20046;-57
2022/11/19 03:59:02;;;;;;;23.10;6.45;;;;;;;18.23;45.36;97068.69;4998421;28;20030;-58
2022/11/19 04:01:27;;;;;;;20.33;6.00;;;;;;;17.30;45.71;97081.75;4998761;28;20038;-57
2022/11/19 04:06:36;;;;;;;21.48;7.13;;;;;;;17.23;46.99;97079.75;5003512;28;20048;-59
2022/11/19 04:09:02;;;;;;;24.63;7.25;;;;;;;17.39;46.29;97080.16;5001548;28;20033;-59
2022/11/19 04:11:27;;;;;;;22.50;6.97;;;;;;;16.68;46.67;97093.78;5001200;28;20045;-58
2022/11/19 04:13:53;;;;;;;22.58;6.55;;;;;;;16.79;100.00;97092.09;5002288;28;20092;-59
2022/11/19 04:16:18;;;;;;;21.67;6.70;;;;;;;17.66;57.88;97097.25;5000139;28;20045;-58
2022/11/19 04:18:43;;;;;;;19.23;6.45;;;;;;;17.70;55.64;97098.69;4995799;28;20030;-57
2022/11/19 04:21:09;;;;;;;24.35;7.47;;;;;;;17.22;56.65;97100.00;4993243;28;20045;-57
2022/11/19 04:23:34;;;;;;;28.67;7.57;;;;;;;16.73;57.04;97102.16;4997024;28;20113;-56
2022/11/19 04:25:59;;;;;;;19.75;6.28;;;;;;;17.32;55.60;97093.00;4998367;28;20072;-56
2022/11/19 04:28:25;;;;;;;24.65;7.55;;;;;;;17.18;54.95;97092.47;5001781;28;20113;-56
2022/11/19 04:30:50;;;;;;;27.20;8.25;;;;;;;16.71;55.31;97096.19;4998898;28;20034;-57
2022/11/19 04:33:15;;;;;;;24.92;7.72;;;;;;;16.79;56.58;97092.09;4998326;28;20085;-56
2022/11/19 04:35:44;;;;;;;24.55;7.40;;;;;;;17.19;55.04;97099.44;4999002;28;20030;-56
2022/11/19 04:38:09;;;;;;;23.92;7.55;;;;;;;16.32;54.68;97101.03;5003671;28;20304;-59
2022/11/19 04:40:34;;;;;;;25.42;8.23;;;;;;;17.77;54.02;97099.81;4996228;28;20397;-59
2022/11/19 04:43:00;;;;;;;23.75;8.25;;;;;;;16.55;55.28;97106.25;5001870;28;20025;-56
2022/11/19 04:45:25;;;;;;;28.35;8.50;;;;;;;17.57;54.46;97108.56;4996617;28;20093;-56
2022/11/19 04:47:50;;;;;;;25.08;8.25;;;;;;;15.58;54.78;97118.97;4996501;28;20022;-57
2022/11/19 04:50:16;;;;;;;24.52;8.00;;;;;;;17.30;54.18;97107.28;4995806;28;20071;-59
2022/11/19 04:52:41;;;;;;;34.88;9.80;;;;;;;17.68;54.17;97109.34;5000361;28;20018;-58
2022/11/19 04:55:07;;;;;;;25.45;8.18;;;;;;;17.19;53.46;97099.44;4999979;28;20022;-58
2022/11/19 04:57:32;;;;;;;24.13;8.20;;;;;;;17.14;53.11;97105.06;5000953;28;20125;-56
2022/11/19 04:59:57;;;;;;;35.33;10.60;;;;;;;17.44;53.16;97098.22;4999807;28;20063;-56
2022/11/19 05:02:23;;;;;;;26.17;8.82;;;;;;;17.92;51.80;97101.19;4997483;28;20039;-56
2022/11/19 05:04:48;;;;;;;35.08;10.75;;;;;;;17.26;53.30;97108.47;4999072;28;20048;-56
2022/11/19 05:07:13;;;;;;;32.42;11.00;;;;;;;17.02;52.63;97104.28;4999009;28;20034;-56
2022/11/19 05:09:39;;;;;;;34.30;11.15;;;;;;;18.25;52.61;97094.00;5001697;28;20019;-56
2022/11/19 05:12:04;;;;;;;31.20;11.02;;;;;;;16.92;52.68;97100.72;4997821;28;20061;-56
2022/11/19 05:14:30;;;;;;;29.63;9.75;;;;;;;17.70;52.36;97098.69;4996110;28;20842;-57
2022/11/19 05:16:55;;;;;;;33.58;10.88;;;;;;;17.98;51.56;97096.38;4995731;28;20117;-56
2022/11/19 05:19:20;;;;;;;35.67;11.85;;;;;;;17.52;52.39;97107.16;4997636;28;20121;-57
2022/11/19 05:21:46;;;;;;;35.03;11.32;;;;;;;18.15;50.47;97106.31;4998710;28;21130;-56
2022/11/19 05:24:11;;;;;;;30.70;10.90;;;;;;;17.86;50.12;97125.44;5000524;28;20022;-57
2022/11/19 05:26:36;;;;;;;29.95;10.60;;;;;;;18.25;50.37;97107.19;4999705;28;20053;-58
2022/11/19 05:29:02;;;;;;;31.40;10.57;;;;;;;18.06;50.75;97115.00;4999924;28;20729;-56
2022/11/19 05:31:27;;;;;;;29.38;9.95;;;;;;;18.21;50.34;97102.28;4997905;28;20041;-57
2022/11/19 05:33:52;;;;;;;30.80;10.90;;;;;;;17.66;51.17;97113.06;5001007;28;20029;-59
2022/11/19 05:36:18;;;;;;;29.95;10.88;;;;;;;18.09;50.14;97101.56;4996270;28;20081;-56
2022/11/19 05:38:43;;;;;;;35.50;12.13;;;;;;;16.72;52.16;97108.38;4994822;28;20129;-57
2022/11/19 05:41:08;;;;;;;37.33;13.25;;;;;;;17.31;50.83;97103.66;4997327;28;20043;-57
2022/11/19 05:43:34;;;;;;;30.77;11.10;;;;;;;17.56;50.84;97106.91;4998667;28;20055;-56
2022/11/19 05:46:00;;;;;;;34.97;12.35;;;;;;;16.87;52.75;97101.09;4997713;28;20042;-56
2022/11/19 05:48:26;;;;;;;38.80;14.07;;;;;;;17.33;51.67;97096.47;4997959;28;20030;-56
2022/11/19 05:50:51;;;;;;;33.33;11.68;;;;;;;17.32;50.43;97100.09;4999371;28;20727;-57
2022/11/19 05:53:16;;;;;;;36.53;13.00;;;;;;;18.67;48.99;97107.06;5001845;28;20129;-56
2022/11/19 05:55:42;;;;;;;35.55;12.85;;;;;;;18.38;48.83;97100.81;4996421;28;20039;-56
2022/11/19 05:58:07;;;;;;;30.67;10.52;;;;;;;17.45;48.79;97116.53;4996696;28;20605;-56
2022/11/19 06:00:32;;;;;;;34.40;12.25;;;;;;;16.57;51.56;97109.63;4995647;28;20049;-57
2022/11/19 06:02:58;;;;;;;34.22;12.98;;;;;;;16.72;50.98;97108.38;4994167;28;20033;-58
2022/11/19 06:05:23;;;;;;;34.33;11.98;;;;;;;16.07;51.46;97103.91;4995734;28;20032;-57
2022/11/19 06:07:48;;;;;;;32.55;12.55;;;;;;;16.51;51.66;97104.84;4996543;28;20049;-57
2022/11/19 06:10:14;;;;;;;35.88;13.95;;;;;;;15.36;53.43;97111.84;4995377;28;20038;-57
2022/11/19 06:12:41;;;;;;;35.63;13.65;;;;;;;16.71;50.28;97111.97;4993202;28;20117;-58
2022/11/19 06:15:07;;;;;;;36.10;12.82;;;;;;;16.04;51.80;97114.66;4998649;28;20447;-58
2022/11/19 06:17:33;;;;;;;33.28;10.98;;;;;;;16.51;51.03;97110.09;4998614;28;20679;-57
2022/11/19 06:19:59;;;;;;;37.00;11.95;;;;;;;17.61;49.81;97115.25;4998241;28;20070;-58
2022/11/19 06:22:24;;;;;;;32.60;12.75;;;;;;;17.66;48.62;97111.28;4996027;28;20154;-57
2022/11/19 06:24:49;;;;;;;38.03;13.40;;;;;;;16.78;50.12;97128.13;4998747;28;20109;-56
2022/11/19 06:27:15;;;;;;;32.53;12.30;;;;;;;16.37;50.78;97119.06;4996087;28;20065;-57
2022/11/19 06:29:40;;;;;;;37.10;15.85;;;;;;;15.87;49.61;97135.19;4985103;28;20064;-57
2022/11/19 06:32:06;;;;;;;28.52;11.55;;;;;;;15.02;51.88;97135.38;4994909;28;20500;-57
2022/11/19 06:34:31;;;;;;;35.35;12.63;;;;;;;17.23;49.96;97135.09;4995321;28;20026;-57
2022/11/19 06:36:57;;;;;;;31.20;10.40;;;;;;;17.67;47.47;97131.41;4997696;28;20407;-57
2022/11/19 06:39:22;;;;;;;32.30;11.55;;;;;;;17.09;47.92;97146.75;4993570;28;20506;-57
2022/11/19 06:41:48;;;;;;;29.88;10.65;;;;;;;17.25;48.56;97135.81;4997081;28;20061;-58
2022/11/19 06:44:13;;;;;;;29.40;11.43;;;;;;;17.41;48.73;97141.50;5001566;28;20468;-59
2022/11/19 06:46:39;;;;;;;28.90;9.45;;;;;;;15.70;50.15;97148.78;4998490;28;20121;-59
2022/11/19 06:49:05;;;;;;;35.55;11.32;;;;;;;17.58;47.85;97136.63;4997749;28;20018;-59
2022/11/19 06:51:31;;;;;;;31.58;10.70;;;;;;;16.45;49.53;97152.69;4996495;28;20034;-57
2022/11/19 06:53:56;;;;;;;34.75;11.70;;;;;;;17.35;47.75;97149.91;5003231;28;20040;-57
2022/11/19 06:56:22;;;;;;;28.33;11.20;;;;;;;16.66;48.30;97152.81;5000173;28;20388;-60
2022/11/19 06:58:47;;;;;;;31.70;12.15;;;;;;;16.69;49.24;97163.94;4995533;28;20073;-58
2022/11/19 07:01:14;;;;;;;36.58;11.93;;;;;;;17.21;48.22;97174.75;4997733;28;20041;-57
2022/11/19 07:03:39;;;;;;;30.13;11.25;;;;;;;17.22;47.90;97178.22;4997473;28;20030;-58
2022/11/19 07:06:05;;;;;;;31.48;10.75;;;;;;;16.28;48.32;97194.31;5001976;28;20040;-58
2022/11/19 07:08:35;;;;;;;31.58;11.48;;;;;;;16.77;47.74;97187.03;4995573;28;20037;-57
2022/11/19 07:11:24;;;;;;;33.67;12.50;;;;;;;16.15;48.17;97204.94;4995559;28;20080;-57
2022/11/19 07:13:56;;;;;;;34.90;12.20;;;;;;;16.85;48.93;97192.53;5002285;28;20119;-57
2022/11/19 07:16:22;;;;;;;35.85;12.50;;;;;;;16.37;47.62;97196.22;4991666;28;20038;-61
2022/11/19 07:18:47;;;;;;;29.30;11.63;;;;;;;16.98;48.03;97192.41;4994144;28;20061;-57
2022/11/19 07:21:13;;;;;;;36.83;11.55;;;;;;;16.57;48.66;97202.56;4996261;28;20104;-58
2022/11/19 07:23:38;;;;;;;29.02;11.68;;;;;;;14.77;49.53;97221.13;4997688;28;20537;-58
2022/11/19 07:26:03;;;;;;;33.20;12.77;;;;;;;15.43;48.59;97208.50;4995843;28;20762;-60
2022/11/19 07:28:29;;;;;;;36.83;11.55;;;;;;;16.86;48.12;97202.13;4994415;28;20125;-57
2022/11/19 07:30:54;;;;;;;32.55;11.90;;;;;;;16.05;47.86;97208.41;4993053;28;20034;-59
2022/11/19 07:33:20;;;;;;;29.70;10.18;;;;;;;15.76;48.94;97219.31;5001170;28;20025;-57
2022/11/19 07:35:45;;;;;;;32.85;14.02;;;;;;;15.73;49.16;97216.88;4995720;28;20048;-57
2022/11/19 07:38:10;;;;;;;29.70;11.07;;;;;;;15.70;49.42;97211.88;4995381;28;20054;-59
2022/11/19 07:40:36;;;;;;;37.13;11.75;;;;;;;15.74;49.05;97221.22;4997116;28;20061;-59
2022/11/19 07:43:01;;;;;;;33.95;12.80;;;;;;;15.05;50.77;97216.53;4994497;28;20029;-59
2022/11/19 07:45:26;;;;;;;41.50;12.50;;;;;;;16.37;49.27;97206.75;4994298;28;20054;-57
2022/11/19 07:47:52;;;;;;;32.05;11.48;;;;;;;15.50;49.37;97218.59;4995488;28;20033;-58
2022/11/19 07:50:17;;;;;;;32.10;11.10;;;;;;;15.20;50.04;97225.09;4994071;28;20029;-57
2022/11/19 07:52:43;;;;;;;38.08;11.60;;;;;;;15.92;49.36;97233.00;4998099;28;20437;-57
2022/11/19 07:55:08;;;;;;;35.10;14.15;;;;;;;14.77;51.06;97230.78;4996678;28;20022;-57
2022/11/19 07:57:34;;;;;;;30.10;11.65;;;;;;;15.47;50.73;97224.88;4994789;28;20654;-57
2022/11/19 08:00:00;;;;;;;37.97;13.20;;;;;;;16.82;47.65;97223.50;4996901;28;20044;-57
2022/11/19 08:02:25;;;;;;;32.55;11.30;;;;;;;15.95;49.00;97227.50;4988976;28;21090;-58
2022/11/19 08:04:50;;;;;;;33.83;13.13;;;;;;;15.54;51.16;97226.13;4999081;28;20030;-57
2022/11/19 08:07:16;;;;;;;30.27;10.38;;;;;;;15.08;50.10;97237.34;5007907;28;20100;-58
2022/11/19 08:09:41;;;;;;;31.15;10.45;;;;;;;16.19;49.76;97230.06;5005119;28;20113;-58
2022/11/19 08:12:06;;;;;;;31.30;12.50;;;;;;;14.57;100.00;97208.53;5007992;28;20697;-57
2022/11/19 08:14:32;;;;;;;33.42;13.27;;;;;;;15.58;69.73;97232.81;5001017;28;20037;-57
2022/11/19 08:19:41;;;;;;;34.35;12.13;;;;;;;16.79;57.03;97234.31;5003411;28;20112;-57
2022/11/19 08:22:10;;;;;;;39.55;13.15;;;;;;;18.20;51.49;97224.69;4997167;28;20469;-57
2022/11/19 08:24:35;;;;;;;35.80;12.32;;;;;;;16.45;54.75;97236.91;4998826;28;20040;-58
2022/11/19 08:27:00;;;;;;;37.85;13.10;;;;;;;16.10;56.33;97227.28;5001144;28;20067;-60
2022/11/19 08:29:26;;;;;;;34.80;13.20;;;;;;;16.30;58.86;97223.13;5002106;28;20028;-58
2022/11/19 08:31:51;;;;;;;34.78;12.15;;;;;;;15.43;56.47;97229.53;5001705;28;20045;-57
2022/11/19 08:34:17;;;;;;;41.35;13.70;;;;;;;16.16;55.28;97232.09;5006068;28;20425;-59
2022/11/19 08:36:43;;;;;;;39.28;13.38;;;;;;;15.58;55.55;97235.44;4998451;28;20041;-58
2022/11/19 08:39:09;;;;;;;33.97;12.48;;;;;;;15.80;55.59;97234.72;5005236;28;20060;-57
2022/11/19 08:44:18;;;;;;;33.60;12.27;;;;;;;16.39;52.99;97240.84;5000533;28;20125;-60
2022/11/19 08:46:44;;;;;;;36.22;11.75;;;;;;;17.00;52.20;97232.66;5003536;28;20505;-58
2022/11/19 08:49:10;;;;;;;43.65;13.05;;;;;;;15.86;52.59;97249.25;5001509;28;20025;-59
2022/11/19 08:51:36;;;;;;;35.95;12.68;;;;;;;17.01;50.38;97239.56;5001493;28;20044;-57
2022/11/19 08:54:02;;;;;;;31.63;11.77;;;;;;;17.92;48.83;97241.03;5000980;28;20030;-61
2022/11/19 08:56:27;;;;;;;36.17;12.70;;;;;;;17.05;48.33;97246.25;4997400;28;20112;-58
2022/11/19 08:58:53;;;;;;;32.05;11.95;;;;;;;16.99;49.37;97248.56;5004362;28;20021;-60
2022/11/19 09:01:19;;;;;;;38.03;13.15;;;;;;;17.60;48.27;97255.97;4997167;28;20034;-57
2022/11/19 09:03:45;;;;;;;32.55;12.18;;;;;;;16.47;49.20;97261.31;5001055;28;20026;-57
2022/11/19 09:06:11;;;;;;;34.03;12.60;;;;;;;17.24;48.86;97258.84;4999054;28;20038;-59
2022/11/19 09:08:37;;;;;;;35.95;12.48;;;;;;;16.06;49.71;97265.31;5004684;28;20026;-57
2022/11/19 09:11:08;;;;;;;30.27;12.13;;;;;;;15.67;52.31;97262.03;4999586;28;20172;-62
2022/11/19 09:13:34;;;;;;;33.25;12.60;;;;;;;16.38;50.38;97261.06;5005640;28;20031;-57
2022/11/19 09:16:00;;;;;;;31.17;11.63;;;;;;;16.64;49.67;97262.66;4998387;28;20084;-58
2022/11/19 09:18:25;;;;;;;37.65;12.82;;;;;;;15.97;51.87;97270.31;5002470;28;20022;-58
2022/11/19 09:20:55;;;;;;;38.78;12.80;;;;;;;17.07;49.94;97268.06;4998960;28;20487;-58
2022/11/19 09:23:22;;;;;;;29.33;11.85;;;;;;;17.40;48.37;97265.50;5003704;28;20040;-58
2022/11/19 09:25:58;;;;;;;43.72;13.63;;;;;;;16.97;48.31;97269.75;5001951;28;20042;-58
2022/11/19 09:28:25;;;;;;;32.05;11.80;;;;;;;16.97;48.29;97272.41;4999181;28;20124;-58
2022/11/19 09:31:02;;;;;;;39.05;12.98;;;;;;;17.06;49.61;97274.31;4999599;28;20022;-58
2022/11/19 09:33:29;;;;;;;33.33;12.02;;;;;;;17.24;47.76;97289.59;5001992;28;20088;-59
2022/11/19 09:35:55;;;;;;;36.85;13.23;;;;;;;16.26;50.29;97295.38;5001538;28;20038;-57
2022/11/19 09:38:20;;;;;;;34.08;12.73;;;;;;;16.79;47.92;97287.81;5001566;28;20025;-57
2022/11/19 09:40:50;;;;;;;34.33;12.75;;;;;;;17.18;48.32;97287.47;5001774;28;20034;-57
2022/11/19 09:43:40;;;;;;;34.92;13.05;;;;;;;16.07;49.39;97296.75;5003141;28;20732;-59
2022/11/19 09:46:23;;;;;;;35.40;12.93;;;;;;;17.14;48.38;97281.59;5000691;28;20052;-58
2022/11/19 09:48:53;;;;;;;33.47;12.20;;;;;;;15.14;49.73;97302.56;5001322;28;20034;-60
2022/11/19 09:51:28;;;;;;;35.92;12.10;;;;;;;17.06;48.82;97289.28;4996331;28;20061;-58
2022/11/19 09:54:03;;;;;;;33.22;12.10;;;;;;;16.99;48.16;97288.09;5000298;28;20033;-58
2022/11/19 09:56:35;;;;;;;36.38;12.05;;;;;;;16.24;50.35;97292.84;4996775;28;20049;-58
2022/11/19 09:59:06;;;;;;;;;;;;;;;17.70;47.79;97286.75;5000356;28;20034;-58
2022/11/19 10:01:34;;;;;;;34.55;12.25;;;;;;;15.83;50.17;97299.41;4996930;28;19921;-57
2022/11/19 10:03:59;;;;;;;37.65;12.77;;;;;;;16.90;49.07;97279.09;4992678;28;20028;-59
2022/11/19 10:06:33;;;;;;;35.45;12.98;;;;;;;15.27;51.51;97276.25;4998693;28;20431;-57
2022/11/19 10:09:14;;;;;;;32.80;11.60;;;;;;;16.67;50.03;97275.56;5000742;28;20145;-58
2022/11/19 10:12:08;;;;;;;36.58;13.23;;;;;;;17.44;48.68;97278.31;4996393;28;20037;-57
2022/11/19 10:14:52;;;;;;;37.42;13.23;;;;;;;17.54;48.17;97284.50;4994702;28;20040;-57
2022/11/19 10:17:20;;;;;;;30.90;11.20;;;;;;;16.49;48.57;97285.75;4998187;28;20136;-57
2022/11/19 10:20:10;;;;;;;40.25;13.38;;;;;;;17.40;47.87;97282.16;4998258;28;20025;-57
2022/11/19 10:22:47;;;;;;;34.75;12.57;;;;;;;17.84;46.50;97275.06;4889450;28;20155;-58
2022/11/19 10:25:18;;;;;;;34.90;12.48;;;;;;;17.30;48.91;97275.97;4906798;28;20044;-57
2022/11/19 10:27:49;;;;;;;31.20;12.52;;;;;;;16.71;48.96;97279.66;5001728;28;20022;-59
2022/11/19 10:30:18;;;;;;;35.50;12.80;;;;;;;17.64;48.03;97275.84;5000070;28;20479;-59
2022/11/19 10:32:56;;;;;;;39.60;13.48;;;;;;;16.37;49.25;97272.53;4996055;28;20022;-57
2022/11/19 10:35:26;;;;;;;33.33;13.02;;;;;;;17.89;48.15;97267.63;4998956;28;20048;-58
2022/11/19 10:38:04;;;;;;;33.80;12.52;;;;;;;15.66;49.42;97274.34;4997302;28;20117;-58
2022/11/19 10:40:46;;;;;;;34.70;12.50;;;;;;;16.38;49.98;97263.72;4996738;28;20029;-58
2022/11/19 10:43:31;;;;;;;32.55;11.50;;;;;;;15.51;48.99;97273.66;5000141;28;20030;-59
2022/11/19 10:45:58;;;;;;;34.97;12.70;;;;;;;16.42;49.10;97274.00;4998960;28;20038;-60
2022/11/19 10:48:32;;;;;;;37.10;12.70;;;;;;;17.01;48.73;97268.56;4993914;28;20067;-58
2022/11/19 10:50:58;;;;;;;39.20;13.93;;;;;;;17.91;47.16;97255.16;4999278;28;20046;-60
2022/11/19 10:53:35;;;;;;;33.83;12.45;;;;;;;17.69;47.69;97260.50;5000691;28;20033;-58
2022/11/19 10:56:03;;;;;;;37.22;12.60;;;;;;;17.49;46.42;97264.75;4998408;28;20153;-59
2022/11/19 10:58:35;;;;;;;32.92;13.05;;;;;;;16.77;48.08;97266.84;4998769;28;20046;-59
2022/11/19 11:01:04;;;;;;;37.42;13.40;;;;;;;17.75;47.61;97254.72;4997386;28;20045;-58
2022/11/19 11:03:40;;;;;;;34.08;12.35;;;;;;;16.53;47.03;97258.22;5000317;28;20120;-60
2022/11/19 11:06:08;;;;;;;43.22;17.67;;;;;;;15.70;49.03;97267.91;4999108;28;20554;-57
2022/11/19 11:08:55;;;;;;;29.38;12.98;;;;;;;17.01;47.19;97260.66;4998687;28;20100;-58
2022/11/19 11:14:50;;;;;;;39.95;14.40;;;;;;;16.43;50.00;97260.75;4996768;28;20060;-58
2022/11/19 11:17:03;;;;;;;35.53;12.63;;;;;;;16.95;46.74;97255.88;5000650;28;20092;-58
2022/11/19 11:19:30;;;;;;;34.25;13.82;;;;;;;18.96;45.09;97241.03;4999739;28;20053;-58
2022/11/19 11:21:56;;;;;;;31.77;13.25;;;;;;;18.07;46.28;97251.25;5000929;28;20546;-57
2022/11/19 11:24:34;;;;;;;34.40;13.68;;;;;;;16.62;47.16;97254.06;5000771;28;20033;-58
2022/11/19 11:27:19;;;;;;;37.05;14.02;;;;;;;17.20;47.89;97243.38;5000421;28;20104;-59
2022/11/19 11:29:45;;;;;;;34.10;14.25;;;;;;;17.07;46.33;97249.63;4995236;28;20121;-58
2022/11/19 11:32:37;;;;;;;38.42;13.38;;;;;;;16.60;46.67;97240.16;4999578;28;20037;-57
2022/11/19 11:35:03;;;;;;;37.63;13.57;;;;;;;15.81;49.20;97259.25;4995848;28;20037;-58
2022/11/19 11:37:29;;;;;;;38.33;16.13;;;;;;;15.01;51.18;97249.22;5000556;28;20034;-58
2022/11/19 11:39:56;;;;;;;40.90;15.35;;;;;;;14.57;51.88;97245.28;5003810;28;20049;-58
2022/11/19 12:50:57;;;;;;;9.63;4.78;;;;;;;;;;5076165;27;20398;-55
2022/11/19 12:53:28;;;;;;;10.68;5.20;;;;;;;;;;5061926;28;20025;-53
2022/11/19 12:56:08;;;;;;;8.20;4.68;;;;;;;;;;5062062;28;20041;-54
2022/11/19 12:58:34;;;;;;;13.48;5.32;;;;;;;;;;5063271;28;20052;-55
2022/11/19 13:01:04;;;;;;;10.97;4.97;;;;;;;;;;5062580;28;20063;-55
2022/11/19 13:03:48;;;;;;;9.82;4.68;;;;;;;;;;5062408;28;20051;-53